sensor_id;sensor_type;location;lat;lon;timestamp;temperature;humidity
1165;DHT22;571;50.930;6.926;2023-04-25T02:50:00;8.90;97.40
1165;DHT22;571;50.930;6.926;2023-04-25T02:52:50;8.90;97.30
1165;DHT22;571;50.930;6.926;2023-04-25T02:55:24;8.80;97.10
1165;DHT22;571;50.930;6.926;2023-04-25T03:01:51;8.90;97.10
1165;DHT22;571;50.930;6.926;2023-04-25T03:04:48;8.90;96.90
1165;DHT22;571;50.930;6.926;2023-04-25T03:10:30;8.80;97.10
1165;DHT22;571;50.930;6.926;2023-04-25T03:13:07;8.80;97.20
1165;DHT22;571;50.930;6.926;2023-04-25T03:16:07;8.80;97.30
1165;DHT22;571;50.930;6.926;2023-04-25T03:19:07;8.80;97.50
1165;DHT22;571;50.930;6.926;2023-04-25T03:22:07;8.60;97.80
1165;DHT22;571;50.930;6.926;2023-04-25T03:25:03;8.80;97.50
1165;DHT22;571;50.930;6.926;2023-04-25T03:27:58;8.70;97.80
1165;DHT22;571;50.930;6.926;2023-04-25T03:30:38;8.80;97.90
1165;DHT22;571;50.930;6.926;2023-04-25T03:33:36;8.80;98.00
1165;DHT22;571;50.930;6.926;2023-04-25T03:36:28;8.80;98.20
1165;DHT22;571;50.930;6.926;2023-04-25T03:39:21;8.80;98.20
1165;DHT22;571;50.930;6.926;2023-04-25T03:42:30;8.80;98.30
1165;DHT22;571;50.930;6.926;2023-04-25T03:45:03;8.90;98.40
1165;DHT22;571;50.930;6.926;2023-04-25T03:54:34;8.70;98.20
1165;DHT22;571;50.930;6.926;2023-04-25T04:00:23;8.90;98.00
1165;DHT22;571;50.930;6.926;2023-04-25T04:03:11;8.80;98.10
1165;DHT22;571;50.930;6.926;2023-04-25T04:06:02;9.10;98.20
1165;DHT22;571;50.930;6.926;2023-04-25T04:09:10;8.90;98.20
1165;DHT22;571;50.930;6.926;2023-04-25T04:11:49;8.80;98.40
1165;DHT22;571;50.930;6.926;2023-04-25T04:14:29;8.80;98.40
1165;DHT22;571;50.930;6.926;2023-04-25T04:17:04;8.70;98.80
1165;DHT22;571;50.930;6.926;2023-04-25T04:20:24;8.80;98.60
1165;DHT22;571;50.930;6.926;2023-04-25T04:26:31;8.90;98.60
1165;DHT22;571;50.930;6.926;2023-04-25T04:29:25;8.90;98.50
1165;DHT22;571;50.930;6.926;2023-04-25T04:32:08;8.90;98.20
1165;DHT22;571;50.930;6.926;2023-04-25T04:35:11;8.90;98.20
1165;DHT22;571;50.930;6.926;2023-04-25T04:38:01;9.10;98.70
1165;DHT22;571;50.930;6.926;2023-04-25T04:40:56;8.90;98.80
1165;DHT22;571;50.930;6.926;2023-04-25T04:43:30;8.80;98.90
1165;DHT22;571;50.930;6.926;2023-04-25T04:46:42;8.80;98.50
1165;DHT22;571;50.930;6.926;2023-04-25T04:49:23;8.90;98.30
1165;DHT22;571;50.930;6.926;2023-04-25T04:52:00;8.90;98.70
1165;DHT22;571;50.930;6.926;2023-04-25T04:54:36;8.90;99.10
1165;DHT22;571;50.930;6.926;2023-04-25T04:57:22;9.00;99.00
1165;DHT22;571;50.930;6.926;2023-04-25T04:59:54;9.00;98.70
1165;DHT22;571;50.930;6.926;2023-04-25T05:02:34;9.20;98.60
1165;DHT22;571;50.930;6.926;2023-04-25T05:05:03;9.00;98.60
1165;DHT22;571;50.930;6.926;2023-04-25T05:07:56;9.10;98.50
1165;DHT22;571;50.930;6.926;2023-04-25T05:10:32;9.10;98.30
1165;DHT22;571;50.930;6.926;2023-04-25T05:13:10;9.20;98.10
1165;DHT22;571;50.930;6.926;2023-04-25T05:15:39;9.10;98.00
1165;DHT22;571;50.930;6.926;2023-04-25T05:18:39;9.10;98.30
1165;DHT22;571;50.930;6.926;2023-04-25T05:21:19;9.40;98.10
1165;DHT22;571;50.930;6.926;2023-04-25T05:23:53;9.10;97.90
1165;DHT22;571;50.930;6.926;2023-04-25T05:30:54;9.20;98.20
1165;DHT22;571;50.930;6.926;2023-04-25T06:07:50;9.20;97.40
1165;DHT22;571;50.930;6.926;2023-04-25T06:10:24;9.20;97.80
1165;DHT22;571;50.930;6.926;2023-04-25T06:13:10;9.30;98.20
1165;DHT22;571;50.930;6.926;2023-04-25T06:15:51;9.10;97.90
1165;DHT22;571;50.930;6.926;2023-04-25T06:18:26;9.30;97.50
1165;DHT22;571;50.930;6.926;2023-04-25T06:21:19;9.50;97.80
1165;DHT22;571;50.930;6.926;2023-04-25T06:24:07;9.40;96.80
1165;DHT22;571;50.930;6.926;2023-04-25T06:26:46;9.60;96.70
1165;DHT22;571;50.930;6.926;2023-04-25T06:29:27;9.60;97.20
1165;DHT22;571;50.930;6.926;2023-04-25T06:32:15;9.80;96.90
1165;DHT22;571;50.930;6.926;2023-04-25T06:35:00;9.80;96.70
1165;DHT22;571;50.930;6.926;2023-04-25T06:37:35;9.90;96.10
1165;DHT22;571;50.930;6.926;2023-04-25T06:40:42;10.00;95.30
1165;DHT22;571;50.930;6.926;2023-04-25T06:43:20;10.20;95.40
1165;DHT22;571;50.930;6.926;2023-04-25T06:45:54;10.10;95.20
1165;DHT22;571;50.930;6.926;2023-04-25T06:48:37;10.00;95.00
1165;DHT22;571;50.930;6.926;2023-04-25T06:51:21;10.10;95.30
1165;DHT22;571;50.930;6.926;2023-04-25T06:54:07;10.10;95.30
1165;DHT22;571;50.930;6.926;2023-04-25T06:56:45;10.10;95.00
1165;DHT22;571;50.930;6.926;2023-04-25T07:02:46;10.40;94.50
1165;DHT22;571;50.930;6.926;2023-04-25T07:05:21;10.30;94.20
1165;DHT22;571;50.930;6.926;2023-04-25T07:07:55;10.30;93.70
1165;DHT22;571;50.930;6.926;2023-04-25T07:10:34;10.60;93.70
1165;DHT22;571;50.930;6.926;2023-04-25T07:13:21;10.50;92.60
1165;DHT22;571;50.930;6.926;2023-04-25T07:15:51;10.60;92.90
1165;DHT22;571;50.930;6.926;2023-04-25T07:18:35;10.50;93.40
1165;DHT22;571;50.930;6.926;2023-04-25T07:21:16;10.70;93.10
1165;DHT22;571;50.930;6.926;2023-04-25T07:23:46;10.80;92.70
1165;DHT22;571;50.930;6.926;2023-04-25T07:26:21;10.90;92.00
1165;DHT22;571;50.930;6.926;2023-04-25T07:28:51;10.90;91.60
1165;DHT22;571;50.930;6.926;2023-04-25T07:31:32;10.90;90.10
1165;DHT22;571;50.930;6.926;2023-04-25T07:34:09;10.90;91.60
1165;DHT22;571;50.930;6.926;2023-04-25T07:36:50;10.90;90.50
1165;DHT22;571;50.930;6.926;2023-04-25T07:39:22;10.90;90.00
1165;DHT22;571;50.930;6.926;2023-04-25T07:42:05;10.90;89.90
1165;DHT22;571;50.930;6.926;2023-04-25T07:44:43;10.80;90.30
1165;DHT22;571;50.930;6.926;2023-04-25T07:47:11;11.00;90.90
1165;DHT22;571;50.930;6.926;2023-04-25T07:49:57;11.00;88.30
1165;DHT22;571;50.930;6.926;2023-04-25T07:52:29;10.90;88.70
1165;DHT22;571;50.930;6.926;2023-04-25T07:55:02;10.90;89.30
1165;DHT22;571;50.930;6.926;2023-04-25T07:57:32;11.00;91.10
1165;DHT22;571;50.930;6.926;2023-04-25T08:00:10;11.10;90.10
1165;DHT22;571;50.930;6.926;2023-04-25T08:02:50;11.10;89.10
1165;DHT22;571;50.930;6.926;2023-04-25T08:05:32;11.10;90.50
1165;DHT22;571;50.930;6.926;2023-04-25T08:11:02;11.20;88.50
1165;DHT22;571;50.930;6.926;2023-04-25T08:13:38;11.30;87.60
1165;DHT22;571;50.930;6.926;2023-04-25T08:16:23;11.50;85.90
1165;DHT22;571;50.930;6.926;2023-04-25T08:19:07;11.30;88.40
1165;DHT22;571;50.930;6.926;2023-04-25T08:21:50;11.40;90.20
1165;DHT22;571;50.930;6.926;2023-04-25T08:24:30;11.50;90.40
1165;DHT22;571;50.930;6.926;2023-04-25T08:27:21;11.70;88.30
1165;DHT22;571;50.930;6.926;2023-04-25T08:29:55;11.70;85.30
1165;DHT22;571;50.930;6.926;2023-04-25T08:32:33;11.70;85.00
1165;DHT22;571;50.930;6.926;2023-04-25T08:35:26;11.90;84.30
1165;DHT22;571;50.930;6.926;2023-04-25T08:38:14;11.90;84.90
1165;DHT22;571;50.930;6.926;2023-04-25T08:41:06;12.00;82.00
1165;DHT22;571;50.930;6.926;2023-04-25T08:43:51;11.90;81.80
1165;DHT22;571;50.930;6.926;2023-04-25T08:49:32;11.80;78.30
1165;DHT22;571;50.930;6.926;2023-04-25T09:51:28;12.20;72.60
1165;DHT22;571;50.930;6.926;2023-04-25T09:54:41;12.20;75.00
1165;DHT22;571;50.930;6.926;2023-04-25T09:58:12;12.30;75.40
1165;DHT22;571;50.930;6.926;2023-04-25T10:03:47;12.20;71.30
1165;DHT22;571;50.930;6.926;2023-04-25T13:16:11;14.40;51.40
1165;DHT22;571;50.930;6.926;2023-04-25T14:13:06;20.60;34.90
1165;DHT22;571;50.930;6.926;2023-04-25T14:26:29;20.40;34.20
1165;DHT22;571;50.930;6.926;2023-04-25T14:57:57;15.80;36.50
1165;DHT22;571;50.930;6.926;2023-04-25T16:16:52;16.40;41.00
